createdAt,value
2018-06-20T00:00:23.213Z,99.90
2018-06-20T00:02:50.394Z,99.90
2018-06-20T00:05:17.749Z,99.90
2018-06-20T00:07:45.425Z,99.90
2018-06-20T00:10:12.516Z,99.90
2018-06-20T00:12:39.662Z,99.90
2018-06-20T00:15:06.753Z,99.90
2018-06-20T00:17:33.904Z,99.90
2018-06-20T00:20:01.012Z,99.90
2018-06-20T00:22:28.114Z,99.90
2018-06-20T00:24:55.226Z,99.90
2018-06-20T00:27:22.325Z,99.90
2018-06-20T00:29:49.446Z,99.90
2018-06-20T00:32:16.553Z,99.90
2018-06-20T00:34:43.683Z,99.90
2018-06-20T00:37:10.806Z,99.90
2018-06-20T00:39:38.019Z,99.90
2018-06-20T00:42:05.457Z,99.90
2018-06-20T00:46:59.709Z,99.90
2018-06-20T00:49:26.837Z,99.90
2018-06-20T00:51:54.110Z,99.90
2018-06-20T00:54:21.250Z,99.90
2018-06-20T00:56:48.516Z,99.90
2018-06-20T00:59:15.621Z,99.90
2018-06-20T01:01:42.758Z,99.90
2018-06-20T01:04:09.902Z,99.90
2018-06-20T01:06:37.017Z,99.90
2018-06-20T01:09:07.397Z,99.90
2018-06-20T01:11:34.605Z,99.90
2018-06-20T01:14:01.694Z,99.90
2018-06-20T01:16:28.800Z,99.90
2018-06-20T01:18:55.935Z,99.90
2018-06-20T01:21:23.071Z,99.90
2018-06-20T01:23:50.179Z,99.90
2018-06-20T01:26:17.298Z,99.90
2018-06-20T01:28:44.451Z,99.90
2018-06-20T01:31:11.592Z,99.90
2018-06-20T01:33:38.741Z,99.90
2018-06-20T01:36:05.895Z,99.90
2018-06-20T01:38:33.044Z,99.90
2018-06-20T01:41:00.159Z,99.90
2018-06-20T01:43:27.319Z,99.90
2018-06-20T01:45:54.434Z,99.90
2018-06-20T01:48:21.555Z,99.90
2018-06-20T01:50:48.683Z,99.90
2018-06-20T01:53:15.830Z,99.90
2018-06-20T01:55:43.023Z,99.90
2018-06-20T01:58:10.147Z,99.90
2018-06-20T02:00:37.265Z,99.90
2018-06-20T02:05:31.562Z,99.90
2018-06-20T02:07:58.668Z,99.90
2018-06-20T02:10:25.818Z,99.90
2018-06-20T02:12:52.911Z,99.90
2018-06-20T02:15:20.027Z,99.90
2018-06-20T02:17:47.130Z,99.90
2018-06-20T02:20:14.396Z,99.90
2018-06-20T02:22:41.548Z,99.90
2018-06-20T02:25:08.758Z,99.90
2018-06-20T02:27:36.098Z,99.90
2018-06-20T02:30:03.701Z,99.90
2018-06-20T02:32:30.926Z,99.90
2018-06-20T02:34:58.060Z,99.90
2018-06-20T02:37:25.211Z,99.90
2018-06-20T02:39:52.312Z,99.90
2018-06-20T02:42:19.431Z,99.90
2018-06-20T02:47:13.808Z,99.90
2018-06-20T02:49:40.955Z,99.90
2018-06-20T02:52:08.247Z,99.90
2018-06-20T02:54:35.349Z,99.90
2018-06-20T02:57:02.456Z,99.90
2018-06-20T02:59:29.566Z,99.90
2018-06-20T03:01:56.710Z,99.90
2018-06-20T03:04:23.822Z,99.90
2018-06-20T03:06:50.970Z,99.90
2018-06-20T03:09:24.627Z,99.90
2018-06-20T03:11:52.095Z,99.90
2018-06-20T03:14:19.215Z,99.90
2018-06-20T03:16:46.359Z,99.90
2018-06-20T03:19:13.603Z,99.90
2018-06-20T03:21:40.843Z,99.90
2018-06-20T03:24:08.007Z,99.90
2018-06-20T03:26:35.123Z,99.90
2018-06-20T03:29:02.231Z,99.90
2018-06-20T03:31:29.606Z,99.90
2018-06-20T03:33:56.870Z,99.90
2018-06-20T03:36:23.998Z,99.90
2018-06-20T03:38:51.134Z,99.90
2018-06-20T03:41:18.267Z,99.90
2018-06-20T03:43:45.427Z,99.90
2018-06-20T03:46:12.549Z,99.90
2018-06-20T03:48:39.684Z,99.90
2018-06-20T03:51:06.826Z,99.90
2018-06-20T03:53:33.970Z,99.90
2018-06-20T03:56:01.090Z,99.90
2018-06-20T03:58:28.199Z,99.90
2018-06-20T04:00:55.299Z,99.90
2018-06-20T04:03:22.406Z,99.90
2018-06-20T04:05:49.501Z,99.90
2018-06-20T04:08:16.611Z,99.90
2018-06-20T04:10:43.859Z,99.90
2018-06-20T04:13:10.990Z,99.90
2018-06-20T04:15:38.124Z,99.90
2018-06-20T04:18:05.431Z,99.90
2018-06-20T04:20:32.767Z,99.90
2018-06-20T04:22:59.886Z,99.90
2018-06-20T04:25:26.985Z,99.90
2018-06-20T04:27:54.106Z,99.90
2018-06-20T04:30:21.202Z,99.90
2018-06-20T04:32:55.074Z,99.90
2018-06-20T04:35:29.083Z,99.90
2018-06-20T04:37:56.459Z,99.90
2018-06-20T04:40:23.614Z,99.90
2018-06-20T04:42:50.719Z,99.90
2018-06-20T04:45:17.863Z,99.90
2018-06-20T04:50:12.165Z,99.90
2018-06-20T04:52:39.286Z,99.90
2018-06-20T04:55:06.386Z,99.90
2018-06-20T04:57:33.622Z,99.90
2018-06-20T05:00:00.731Z,99.90
2018-06-20T05:02:27.887Z,99.90
2018-06-20T05:04:54.988Z,99.90
2018-06-20T05:07:22.103Z,99.90
2018-06-20T05:09:49.229Z,99.90
2018-06-20T05:12:16.349Z,99.90
2018-06-20T05:14:43.522Z,99.90
2018-06-20T05:17:10.759Z,99.90
2018-06-20T05:19:37.866Z,99.90
2018-06-20T05:22:05.116Z,99.90
2018-06-20T05:24:32.234Z,99.90
2018-06-20T05:26:59.347Z,99.90
2018-06-20T05:29:26.480Z,99.90
2018-06-20T05:31:53.588Z,99.90
2018-06-20T05:34:20.710Z,97.80
2018-06-20T05:36:47.828Z,93.90
2018-06-20T05:39:14.964Z,91.60
2018-06-20T05:41:42.137Z,90.40
2018-06-20T05:44:09.275Z,86.10
2018-06-20T05:46:36.472Z,82.40
2018-06-20T05:49:03.860Z,80.30
2018-06-20T05:51:30.998Z,77.90
2018-06-20T05:53:58.193Z,75.40
2018-06-20T05:56:25.263Z,75.00
2018-06-20T05:58:52.483Z,73.80
2018-06-20T06:01:19.642Z,68.40
2018-06-20T06:03:46.763Z,65.70
2018-06-20T06:06:15.119Z,63.10
2018-06-20T06:08:42.831Z,56.50
2018-06-20T06:11:10.177Z,49.00
2018-06-20T06:13:37.675Z,45.40
2018-06-20T06:16:05.067Z,42.70
2018-06-20T06:18:32.477Z,43.20
2018-06-20T06:20:59.727Z,42.60
2018-06-20T06:23:27.476Z,39.90
2018-06-20T06:25:55.207Z,38.00
2018-06-20T06:28:22.322Z,38.40
2018-06-20T06:30:49.426Z,38.80
2018-06-20T06:33:16.546Z,38.90
2018-06-20T06:35:43.703Z,38.80
2018-06-20T06:38:10.955Z,37.00
2018-06-20T06:40:38.367Z,36.20
2018-06-20T06:43:05.571Z,34.50
2018-06-20T06:45:32.678Z,32.00
2018-06-20T06:47:59.799Z,31.70
2018-06-20T06:50:26.918Z,31.30
2018-06-20T06:52:54.020Z,33.30
2018-06-20T06:55:21.351Z,33.20
2018-06-20T06:57:48.476Z,31.20
2018-06-20T07:00:15.654Z,29.50
2018-06-20T07:02:42.888Z,29.10
2018-06-20T07:05:10.233Z,28.90
2018-06-20T07:07:37.339Z,29.30
2018-06-20T07:12:31.638Z,28.00
2018-06-20T07:14:58.751Z,27.90
2018-06-20T07:17:25.882Z,28.90
2018-06-20T07:19:52.991Z,28.70
2018-06-20T07:22:20.128Z,28.70
2018-06-20T07:24:47.280Z,28.50
2018-06-20T07:27:14.472Z,28.70
2018-06-20T07:29:41.600Z,27.70
2018-06-20T07:32:08.770Z,26.50
2018-06-20T07:34:35.902Z,27.30
2018-06-20T07:37:03.027Z,26.30
2018-06-20T07:39:30.136Z,26.30
2018-06-20T07:41:57.247Z,25.70
2018-06-20T07:44:24.358Z,26.30
2018-06-20T07:46:51.485Z,27.10
2018-06-20T07:49:18.659Z,26.70
2018-06-20T07:51:45.822Z,26.60
2018-06-20T07:54:12.995Z,25.70
2018-06-20T07:56:40.191Z,26.30
2018-06-20T07:59:11.959Z,26.10
2018-06-20T08:01:56.586Z,25.90
2018-06-20T08:04:29.589Z,26.20
2018-06-20T08:07:02.615Z,25.30
2018-06-20T08:09:36.011Z,25.60
2018-06-20T08:12:08.925Z,24.80
2018-06-20T08:14:41.747Z,25.50
2018-06-20T08:17:14.665Z,25.00
2018-06-20T08:19:47.522Z,24.30
2018-06-20T08:22:17.402Z,24.60
2018-06-20T08:24:56.399Z,24.50
2018-06-20T08:27:23.547Z,24.30
2018-06-20T08:29:50.676Z,24.10
2018-06-20T08:32:17.831Z,26.50
2018-06-20T08:34:45.035Z,28.00
2018-06-20T08:37:12.181Z,27.40
2018-06-20T08:39:39.331Z,26.60
2018-06-20T08:42:06.459Z,25.90
2018-06-20T08:44:33.653Z,25.60
2018-06-20T08:47:00.775Z,25.40
2018-06-20T08:49:27.898Z,25.90
2018-06-20T08:51:55.002Z,25.10
2018-06-20T08:54:22.131Z,24.30
2018-06-20T08:56:49.267Z,24.40
2018-06-20T08:59:16.379Z,24.70
2018-06-20T09:01:43.523Z,24.80
2018-06-20T09:04:16.499Z,25.10
2018-06-20T09:06:49.443Z,25.00
2018-06-20T09:09:22.623Z,26.40
2018-06-20T09:11:55.491Z,26.90
2018-06-20T09:14:22.655Z,26.80
2018-06-20T09:16:55.622Z,26.50
2018-06-20T09:19:28.995Z,26.50
2018-06-20T09:21:56.202Z,27.00
2018-06-20T09:24:23.252Z,26.50
2018-06-20T09:26:50.354Z,27.00
2018-06-20T09:29:17.500Z,26.40
2018-06-20T09:31:44.651Z,26.70
2018-06-20T09:34:11.820Z,26.70
2018-06-20T09:36:39.007Z,28.10
2018-06-20T09:39:06.617Z,29.00
2018-06-20T09:41:33.768Z,29.20
2018-06-20T09:44:00.884Z,30.00
2018-06-20T09:46:28.043Z,33.70
2018-06-20T09:48:55.146Z,37.20
2018-06-20T09:51:22.254Z,39.20
2018-06-20T09:53:49.366Z,39.40
2018-06-20T09:56:16.505Z,40.20
2018-06-20T09:58:43.684Z,40.60
2018-06-20T10:01:16.527Z,41.70
2018-06-20T10:03:49.543Z,41.50
2018-06-20T10:06:22.355Z,41.70
2018-06-20T10:08:56.072Z,42.60
2018-06-20T10:11:29.367Z,43.00
2018-06-20T10:13:59.440Z,43.60
2018-06-20T10:16:27.879Z,44.20
2018-06-20T10:18:55.005Z,44.70
2018-06-20T10:21:22.152Z,45.40
2018-06-20T10:23:49.246Z,45.50
2018-06-20T10:26:16.384Z,45.60
2018-06-20T10:28:43.518Z,45.90
2018-06-20T10:31:10.691Z,45.60
2018-06-20T10:33:37.809Z,45.40
2018-06-20T10:36:04.917Z,45.30
2018-06-20T10:38:32.055Z,45.80
2018-06-20T10:40:59.229Z,45.90
2018-06-20T10:43:26.371Z,46.60
2018-06-20T10:45:59.386Z,46.60
2018-06-20T10:48:26.500Z,46.50
2018-06-20T10:50:53.615Z,46.00
2018-06-20T10:53:20.714Z,46.50
2018-06-20T10:55:47.860Z,46.20
2018-06-20T10:58:20.746Z,46.30
2018-06-20T11:00:53.559Z,46.40
2018-06-20T11:03:26.509Z,46.90
2018-06-20T11:05:59.294Z,47.30
2018-06-20T11:08:32.311Z,47.60
2018-06-20T11:12:05.874Z,47.50
2018-06-20T11:14:33.045Z,47.00
2018-06-20T11:17:00.188Z,46.50
2018-06-20T11:19:27.353Z,46.20
2018-06-20T11:21:54.615Z,45.90
2018-06-20T11:24:21.721Z,46.00
2018-06-20T11:26:48.843Z,46.70
2018-06-20T11:29:16.025Z,46.60
2018-06-20T11:31:43.193Z,46.10
2018-06-20T11:34:10.655Z,47.20
2018-06-20T11:36:37.821Z,47.50
2018-06-20T11:39:06.917Z,47.00
2018-06-20T11:41:34.045Z,46.50
2018-06-20T11:46:34.080Z,48.10
2018-06-20T11:49:01.192Z,47.80
2018-06-20T11:51:28.306Z,46.90
2018-06-20T11:53:55.455Z,47.20
2018-06-20T11:56:22.566Z,48.10
2018-06-20T11:58:55.422Z,48.20
2018-06-20T12:01:28.262Z,48.20
2018-06-20T12:04:01.192Z,48.50
2018-06-20T12:06:34.202Z,48.70
2018-06-20T12:09:07.179Z,48.70
2018-06-20T12:11:40.012Z,48.20
2018-06-20T12:14:13.022Z,48.30
2018-06-20T12:16:45.051Z,48.40
2018-06-20T12:19:18.039Z,47.70
2018-06-20T12:21:51.453Z,48.10
2018-06-20T12:24:24.362Z,48.70
2018-06-20T12:26:57.142Z,48.50
2018-06-20T12:29:29.956Z,48.30
2018-06-20T12:32:02.906Z,47.70
2018-06-20T12:34:35.663Z,47.70
2018-06-20T12:37:08.640Z,47.70
2018-06-20T12:39:35.330Z,48.40
2018-06-20T12:42:08.145Z,47.90
2018-06-20T12:44:41.149Z,47.10
2018-06-20T12:47:16.240Z,46.90
2018-06-20T12:49:46.830Z,46.80
2018-06-20T12:52:15.093Z,46.50
2018-06-20T12:54:43.131Z,45.60
2018-06-20T12:57:10.407Z,45.70
2018-06-20T13:02:11.769Z,46.60
2018-06-20T13:04:38.919Z,46.40
2018-06-20T13:07:06.050Z,44.80
2018-06-20T13:09:33.191Z,44.40
2018-06-20T13:12:00.298Z,45.20
2018-06-20T13:14:27.443Z,45.60
2018-06-20T13:16:54.871Z,45.50
2018-06-20T13:19:21.997Z,45.40
2018-06-20T13:21:49.138Z,45.60
2018-06-20T13:24:16.254Z,46.00
2018-06-20T13:26:43.433Z,46.10
2018-06-20T13:29:10.584Z,46.10
2018-06-20T13:31:43.591Z,46.10
2018-06-20T13:34:16.442Z,45.80
2018-06-20T13:36:49.231Z,46.20
2018-06-20T13:40:20.843Z,46.80
2018-06-20T13:42:53.836Z,47.10
2018-06-20T13:45:26.810Z,48.30
2018-06-20T13:47:59.632Z,48.80
2018-06-20T13:50:26.750Z,48.80
2018-06-20T13:52:53.878Z,48.60
2018-06-20T13:55:20.991Z,48.40
2018-06-20T13:57:48.130Z,48.20
2018-06-20T14:00:15.375Z,48.30
2018-06-20T14:05:09.754Z,47.60
2018-06-20T14:07:36.858Z,47.00
2018-06-20T14:10:03.994Z,47.50
2018-06-20T14:12:31.130Z,47.70
2018-06-20T14:14:58.318Z,47.10
2018-06-20T14:17:25.609Z,47.20
2018-06-20T14:19:58.511Z,47.20
2018-06-20T14:22:25.652Z,46.90
2018-06-20T14:24:52.802Z,48.30
2018-06-20T14:27:19.935Z,48.00
2018-06-20T14:29:47.084Z,48.20
2018-06-20T14:33:21.872Z,48.20
2018-06-20T14:35:54.798Z,48.30
2018-06-20T14:38:27.806Z,48.20
2018-06-20T14:41:00.918Z,48.60
2018-06-20T14:43:33.816Z,48.50
2018-06-20T14:46:06.580Z,48.90
2018-06-20T14:48:33.676Z,48.70
2018-06-20T14:51:00.803Z,48.50
2018-06-20T14:53:27.927Z,48.50
2018-06-20T14:55:55.041Z,48.40
2018-06-20T14:58:22.174Z,48.90
2018-06-20T15:00:49.391Z,49.10
2018-06-20T15:03:16.520Z,48.70
2018-06-20T15:08:17.037Z,48.50
2018-06-20T15:10:44.196Z,48.90
2018-06-20T15:13:11.466Z,48.90
2018-06-20T15:15:38.598Z,48.50
2018-06-20T15:18:05.736Z,48.50
2018-06-20T15:20:32.864Z,48.60
2018-06-20T15:22:59.976Z,48.10
2018-06-20T15:25:31.191Z,48.20
2018-06-20T15:28:04.241Z,48.20
2018-06-20T15:30:37.118Z,47.90
2018-06-20T15:33:10.197Z,48.30
2018-06-20T15:35:43.092Z,48.30
2018-06-20T15:38:16.095Z,48.50
2018-06-20T15:40:43.445Z,48.60
2018-06-20T15:43:10.622Z,48.60
2018-06-20T15:45:37.759Z,49.00
2018-06-20T15:48:05.028Z,49.40
2018-06-20T15:50:32.216Z,49.60
2018-06-20T15:52:59.369Z,50.40
2018-06-20T15:55:26.503Z,50.40
2018-06-20T15:57:53.631Z,51.60
2018-06-20T16:00:20.799Z,51.80
2018-06-20T16:02:47.930Z,51.70
2018-06-20T16:05:15.129Z,51.40
2018-06-20T16:07:42.329Z,51.00
2018-06-20T16:10:11.186Z,51.40
2018-06-20T16:12:38.356Z,51.30
2018-06-20T16:15:05.504Z,51.50
2018-06-20T16:17:32.620Z,51.10
2018-06-20T16:22:38.463Z,51.10
2018-06-20T16:25:11.297Z,51.90
2018-06-20T16:27:44.269Z,52.00
2018-06-20T16:30:17.339Z,51.90
2018-06-20T16:32:44.537Z,50.70
2018-06-20T16:35:11.687Z,51.60
2018-06-20T16:37:38.900Z,51.30
2018-06-20T16:40:06.034Z,51.90
2018-06-20T16:42:33.173Z,51.80
2018-06-20T16:45:00.323Z,51.90
2018-06-20T16:47:27.491Z,52.00
2018-06-20T16:49:54.625Z,51.70
2018-06-20T16:52:21.959Z,51.50
2018-06-20T16:54:49.090Z,51.60
2018-06-20T16:57:16.262Z,51.70
2018-06-20T16:59:43.405Z,51.80
2018-06-20T17:02:16.389Z,51.40
2018-06-20T17:04:43.548Z,52.10
2018-06-20T17:07:15.340Z,51.90
2018-06-20T17:09:42.607Z,52.20
2018-06-20T17:12:15.553Z,52.10
2018-06-20T17:14:48.622Z,52.00
2018-06-20T17:17:21.454Z,51.80
2018-06-20T17:19:54.714Z,51.60
2018-06-20T17:22:27.434Z,51.70
2018-06-20T17:25:00.556Z,51.20
2018-06-20T17:27:27.682Z,51.90
2018-06-20T17:29:54.810Z,51.70
2018-06-20T17:32:22.014Z,51.90
2018-06-20T17:34:49.127Z,52.30
2018-06-20T17:37:16.402Z,52.90
2018-06-20T17:39:43.694Z,52.50
2018-06-20T17:42:10.854Z,52.20
2018-06-20T17:44:38.016Z,51.60
2018-06-20T17:47:05.162Z,51.10
2018-06-20T17:49:32.330Z,50.90
2018-06-20T17:51:59.454Z,50.80
2018-06-20T17:54:26.600Z,50.80
2018-06-20T17:56:53.726Z,50.20
2018-06-20T17:59:20.864Z,50.20
2018-06-20T18:01:48.074Z,50.90
2018-06-20T18:04:20.995Z,50.80
2018-06-20T18:06:53.883Z,51.00
2018-06-20T18:09:26.979Z,50.80
2018-06-20T18:11:59.847Z,51.20
2018-06-20T18:14:32.842Z,51.40
2018-06-20T18:17:00.179Z,51.90
2018-06-20T18:19:28.140Z,52.20
2018-06-20T18:21:55.562Z,53.10
2018-06-20T18:24:22.966Z,53.70
2018-06-20T18:26:50.084Z,53.90
2018-06-20T18:31:44.444Z,54.80
2018-06-20T18:34:11.623Z,55.80
2018-06-20T18:36:38.809Z,56.60
2018-06-20T18:39:06.886Z,58.10
2018-06-20T18:41:34.031Z,58.30
2018-06-20T18:44:01.208Z,58.90
2018-06-20T18:46:28.364Z,58.70
2018-06-20T18:48:55.516Z,60.80
2018-06-20T18:51:22.665Z,63.10
2018-06-20T18:53:49.803Z,64.40
2018-06-20T18:58:49.966Z,66.70
2018-06-20T19:01:22.982Z,68.20
2018-06-20T19:03:55.751Z,70.20
2018-06-20T19:09:00.057Z,72.80
2018-06-20T19:11:27.162Z,72.10
2018-06-20T19:13:54.307Z,73.20
2018-06-20T19:16:21.468Z,73.90
2018-06-20T19:18:48.594Z,74.00
2018-06-20T19:21:15.760Z,73.90
2018-06-20T19:23:42.985Z,74.70
2018-06-20T19:26:10.197Z,74.20
2018-06-20T19:28:37.337Z,74.10
2018-06-20T19:31:04.519Z,74.80
2018-06-20T19:33:31.659Z,75.60
2018-06-20T19:35:58.811Z,76.00
2018-06-20T19:38:25.971Z,76.70
2018-06-20T19:40:53.142Z,77.50
2018-06-20T19:43:20.276Z,78.20
2018-06-20T19:45:47.477Z,77.90
2018-06-20T19:48:14.795Z,78.50
2018-06-20T19:50:42.092Z,79.10
2018-06-20T19:53:09.318Z,79.60
2018-06-20T19:55:36.468Z,81.50
2018-06-20T19:58:03.631Z,83.00
2018-06-20T20:00:30.783Z,84.40
2018-06-20T20:02:57.943Z,85.10
2018-06-20T20:05:25.078Z,85.60
2018-06-20T20:07:52.207Z,86.70
2018-06-20T20:10:19.373Z,88.00
2018-06-20T20:12:46.548Z,87.90
2018-06-20T20:15:13.737Z,87.90
2018-06-20T20:17:40.916Z,88.70
2018-06-20T20:20:08.389Z,88.60
2018-06-20T20:22:35.462Z,88.70
2018-06-20T20:25:02.851Z,89.10
2018-06-20T20:27:29.966Z,88.90
2018-06-20T20:29:57.091Z,87.60
2018-06-20T20:32:24.216Z,88.00
2018-06-20T20:34:51.610Z,89.10
2018-06-20T20:37:18.884Z,90.20
2018-06-20T20:39:46.011Z,91.30
2018-06-20T20:42:13.264Z,91.60
2018-06-20T20:44:40.456Z,92.30
2018-06-20T20:47:07.591Z,92.50
2018-06-20T20:49:34.764Z,93.00
2018-06-20T20:52:01.840Z,92.20
2018-06-20T20:54:28.998Z,92.00
2018-06-20T20:56:56.189Z,92.70
2018-06-20T20:59:24.151Z,93.00
2018-06-20T21:01:51.477Z,92.60
2018-06-20T21:04:18.582Z,92.80
2018-06-20T21:06:45.757Z,92.70
2018-06-20T21:09:12.906Z,92.60
2018-06-20T21:11:40.107Z,93.10
2018-06-20T21:14:07.203Z,93.60
2018-06-20T21:16:34.366Z,94.20
2018-06-20T21:19:01.493Z,95.00
2018-06-20T21:21:29.230Z,95.90
2018-06-20T21:23:56.345Z,96.00
2018-06-20T21:26:23.570Z,96.30
2018-06-20T21:28:50.690Z,95.90
2018-06-20T21:31:17.813Z,94.60
2018-06-20T21:33:45.175Z,95.60
2018-06-20T21:36:12.336Z,95.40
2018-06-20T21:38:39.468Z,95.20
2018-06-20T21:41:06.575Z,94.10
2018-06-20T21:43:33.675Z,94.50
2018-06-20T21:46:00.774Z,95.90
2018-06-20T21:48:28.013Z,95.80
2018-06-20T21:50:55.087Z,97.00
2018-06-20T21:53:22.211Z,97.20
2018-06-20T21:55:49.375Z,97.60
2018-06-20T22:00:45.105Z,97.50
2018-06-20T22:03:12.288Z,97.10
2018-06-20T22:05:39.429Z,97.20
2018-06-20T22:08:06.544Z,97.30
2018-06-20T22:10:33.670Z,95.70
2018-06-20T22:13:00.776Z,94.40
2018-06-20T22:15:27.895Z,94.10
2018-06-20T22:17:55.003Z,94.60
2018-06-20T22:20:22.163Z,94.50
2018-06-20T22:22:49.247Z,95.10
2018-06-20T22:25:16.413Z,94.90
2018-06-20T22:27:43.871Z,95.50
2018-06-20T22:30:11.132Z,94.50
2018-06-20T22:32:38.242Z,94.50
2018-06-20T22:35:05.400Z,94.90
2018-06-20T22:37:32.494Z,95.40
2018-06-20T22:39:59.679Z,96.10
2018-06-20T22:42:26.782Z,96.60
2018-06-20T22:44:53.903Z,96.70
2018-06-20T22:47:21.009Z,96.80
2018-06-20T22:49:48.199Z,96.80
2018-06-20T22:54:42.537Z,95.30
2018-06-20T22:57:09.747Z,94.90
2018-06-20T22:59:36.874Z,95.30
2018-06-20T23:02:04.018Z,94.40
2018-06-20T23:04:31.171Z,94.20
2018-06-20T23:06:58.291Z,94.40
2018-06-20T23:09:25.463Z,94.60
2018-06-20T23:11:52.540Z,94.60
2018-06-20T23:14:19.663Z,94.00
2018-06-20T23:16:46.788Z,93.80
2018-06-20T23:21:41.910Z,93.70
2018-06-20T23:24:09.094Z,93.70
2018-06-20T23:26:36.231Z,93.60
2018-06-20T23:29:03.375Z,92.60
2018-06-20T23:31:30.470Z,92.70
2018-06-20T23:33:57.591Z,92.10
2018-06-20T23:36:24.732Z,92.50
2018-06-20T23:38:51.862Z,92.10
2018-06-20T23:43:46.182Z,92.20
2018-06-20T23:46:13.719Z,92.60
2018-06-20T23:48:40.887Z,93.10
2018-06-20T23:51:08.223Z,93.50
2018-06-20T23:53:35.506Z,93.90
2018-06-20T23:56:02.635Z,94.70
2018-06-20T23:58:29.754Z,95.10
